MET'MAP v2.0
soon released !

Expected late october,
this new version will be
more efficient, smarter,
and hosted on a brand new
server x3 powerfull...
...and still free !


Not compatible ?
Try the mobile version !

LOG IN : | Subscribe | Disclaimer | Who is Orbifly ? |
ICAO code :
Legend : VFR Marginal VFR IFR Intensive IFR Very Intensive IFR
Visi :
Ceiling :
>= 8 km
>= 3000ft
5 to 8 km
1000 to 3000 ft
1500m to 5 km
500 to 1000 ft
800 to 1500m
200 to 500 ft
< 800m
< 200 ft

METAR - LRSM Satu Mare - 30 Mar 2020 12:35 UTC - Data Source NOAA   


- Airport Elevation : 405 ft
- IATA code : SUJ
- No reported NOTAMs.


LRSM - Satu Mare

Latest METAR recorded : 2015/08/11 08:00 LRSM 110800Z VRB02KT CAVOK 31/13 Q1014
TAF TAF LRSM
Valid from the 30 at 09:00 until the 30 at 18:00 UTC


300800Z 3009/3018 34018KT CAVOK
TEMPO 3009/3014 34018G28KT

Source NOAA


MET'MAP, your aeronautical weather chart ! - Copyright ORBIFLY December 2007

Programming & Development : Alexandra Zaïnal
Co-Developer : Marc-Olivier Méhu
Technical & hardware support : Manuel Goepfert
Concept & Financing : Baudouin d'Aumeries